EZY14J EPKK-LKPR
Flight info
| Callsign | EZY14J |
|---|---|
| Flight time | 0h 47m |
| Altitude | 36000 |
| Route | TUSIN DCT LABUK DCT TUMKA DCT VLM |
| Aircraft | A320/M-SDE3FGHIRWY/LB1 |
Departure
| Time | 2026-05-06 19:44 |
|---|---|
| Airport | Kraków John Paul II International Airport (EPKK) |
Arrival
| Time | 2026-05-06 20:32 |
|---|---|
| Airport | Václav Havel Airport Prague (LKPR) |
| Time | Latitude | Longitude | Altitude | Speed | Heading |
|---|---|---|---|---|---|
| 2026-05-06 19:29 | 50.07577 | 19.80098 | 800 ft | 0 kts | 347° |
| 2026-05-06 19:39 | 50.07592 | 19.80092 | 800 ft | 3 kts | 347° |
| 2026-05-06 19:39 | 50.07617 | 19.80103 | 800 ft | 5 kts | 37° |
| 2026-05-06 19:39 | 50.07632 | 19.80138 | 800 ft | 3 kts | 69° |
| 2026-05-06 19:39 | 50.07637 | 19.80168 | 800 ft | 4 kts | 76° |
| 2026-05-06 19:40 | 50.07646 | 19.80234 | 800 ft | 9 kts | 79° |
| 2026-05-06 19:40 | 50.07668 | 19.80340 | 800 ft | 10 kts | 70° |
| 2026-05-06 19:40 | 50.07726 | 19.80370 | 800 ft | 9 kts | 357° |
| 2026-05-06 19:40 | 50.07785 | 19.80357 | 800 ft | 8 kts | 348° |
| 2026-05-06 19:41 | 50.07832 | 19.80340 | 800 ft | 4 kts | 347° |
| 2026-05-06 19:41 | 50.07837 | 19.80338 | 800 ft | 0 kts | 347° |
| 2026-05-06 19:42 | 50.07856 | 19.80331 | 800 ft | 9 kts | 347° |
| 2026-05-06 19:42 | 50.07926 | 19.80306 | 800 ft | 11 kts | 347° |
| 2026-05-06 19:42 | 50.08003 | 19.80263 | 800 ft | 12 kts | 313° |
| 2026-05-06 19:42 | 50.08005 | 19.80151 | 801 ft | 9 kts | 256° |
| 2026-05-06 19:43 | 50.08004 | 19.80146 | 801 ft | 0 kts | 256° |
| 2026-05-06 19:43 | 50.08004 | 19.80143 | 801 ft | 3 kts | 256° |
| 2026-05-06 19:43 | 50.07952 | 19.79794 | 800 ft | 73 kts | 257° |
| 2026-05-06 19:44 | 50.07792 | 19.78658 | 801 ft | 139 kts | 258° |
| 2026-05-06 19:44 | 50.07569 | 19.76968 | 1061 ft | 165 kts | 259° |
| 2026-05-06 19:44 | 50.07339 | 19.75246 | 1824 ft | 161 kts | 255° |
| 2026-05-06 19:44 | 50.07125 | 19.73573 | 2621 ft | 155 kts | 254° |
| 2026-05-06 19:45 | 50.06898 | 19.71890 | 3149 ft | 168 kts | 252° |
| 2026-05-06 19:45 | 50.06617 | 19.69994 | 3493 ft | 192 kts | 253° |
| 2026-05-06 19:45 | 50.06261 | 19.67856 | 3945 ft | 216 kts | 250° |
| 2026-05-06 19:45 | 50.05814 | 19.65483 | 4478 ft | 240 kts | 249° |
| 2026-05-06 19:46 | 50.05324 | 19.62938 | 5309 ft | 249 kts | 249° |
| 2026-05-06 19:46 | 50.04833 | 19.60364 | 6298 ft | 253 kts | 249° |
| 2026-05-06 19:46 | 50.04328 | 19.57721 | 7213 ft | 257 kts | 249° |
| 2026-05-06 19:46 | 50.03812 | 19.55027 | 8085 ft | 263 kts | 249° |
| 2026-05-06 19:47 | 50.03285 | 19.52281 | 8994 ft | 267 kts | 250° |
| 2026-05-06 19:47 | 50.02750 | 19.49488 | 9875 ft | 272 kts | 250° |
| 2026-05-06 19:47 | 50.02185 | 19.46555 | 10271 ft | 295 kts | 250° |
| 2026-05-06 19:47 | 50.01577 | 19.43407 | 10741 ft | 311 kts | 250° |
| 2026-05-06 19:48 | 50.00953 | 19.40153 | 11489 ft | 316 kts | 250° |
| 2026-05-06 19:48 | 50.00321 | 19.36836 | 12309 ft | 320 kts | 250° |
| 2026-05-06 19:48 | 49.99688 | 19.33509 | 13126 ft | 324 kts | 250° |
| 2026-05-06 19:48 | 49.99047 | 19.30155 | 14072 ft | 317 kts | 250° |
| 2026-05-06 19:49 | 49.98437 | 19.26951 | 15214 ft | 310 kts | 250° |
| 2026-05-06 19:49 | 49.97796 | 19.23631 | 15476 ft | 328 kts | 250° |
| 2026-05-06 19:49 | 49.97132 | 19.20199 | 16054 ft | 335 kts | 250° |
| 2026-05-06 19:49 | 49.96456 | 19.16715 | 16721 ft | 339 kts | 250° |
| 2026-05-06 19:50 | 49.95770 | 19.13193 | 17418 ft | 342 kts | 250° |
| 2026-05-06 19:50 | 49.95077 | 19.09639 | 18108 ft | 345 kts | 250° |
| 2026-05-06 19:50 | 49.94373 | 19.06049 | 18709 ft | 348 kts | 250° |
| 2026-05-06 19:50 | 49.93676 | 19.02483 | 19318 ft | 351 kts | 250° |
| 2026-05-06 19:51 | 49.92967 | 18.98850 | 19942 ft | 353 kts | 250° |
| 2026-05-06 19:51 | 49.92251 | 18.95190 | 20579 ft | 356 kts | 251° |
| 2026-05-06 19:51 | 49.91531 | 18.91509 | 21203 ft | 358 kts | 251° |
| 2026-05-06 19:51 | 49.90804 | 18.87804 | 21824 ft | 360 kts | 251° |
| 2026-05-06 19:52 | 49.90069 | 18.84072 | 22437 ft | 363 kts | 251° |
| 2026-05-06 19:52 | 49.89329 | 18.80313 | 23052 ft | 365 kts | 251° |
| 2026-05-06 19:52 | 49.88584 | 18.76537 | 23594 ft | 368 kts | 251° |
| 2026-05-06 19:52 | 49.87830 | 18.72728 | 24089 ft | 370 kts | 251° |
| 2026-05-06 19:53 | 49.87071 | 18.68900 | 24575 ft | 372 kts | 251° |
| 2026-05-06 19:53 | 49.86305 | 18.65060 | 25055 ft | 374 kts | 251° |
| 2026-05-06 19:53 | 49.85533 | 18.61206 | 25517 ft | 376 kts | 251° |
| 2026-05-06 19:53 | 49.84730 | 18.57338 | 25965 ft | 377 kts | 247° |
| 2026-05-06 19:54 | 49.83693 | 18.53604 | 26417 ft | 379 kts | 248° |
| 2026-05-06 19:54 | 49.83179 | 18.49576 | 26822 ft | 387 kts | 266° |
| 2026-05-06 19:54 | 49.83515 | 18.45454 | 27230 ft | 395 kts | 278° |
| 2026-05-06 19:54 | 49.84082 | 18.41230 | 27671 ft | 396 kts | 277° |
| 2026-05-06 19:55 | 49.84627 | 18.37091 | 28119 ft | 398 kts | 277° |
| 2026-05-06 19:55 | 49.85175 | 18.32826 | 28556 ft | 399 kts | 277° |
| 2026-05-06 19:55 | 49.85708 | 18.28595 | 28967 ft | 401 kts | 277° |
| 2026-05-06 19:55 | 49.86236 | 18.24354 | 29361 ft | 403 kts | 277° |
| 2026-05-06 19:56 | 49.86762 | 18.20134 | 29737 ft | 404 kts | 277° |
| 2026-05-06 19:56 | 49.87297 | 18.15847 | 30079 ft | 406 kts | 277° |
| 2026-05-06 19:56 | 49.87838 | 18.11535 | 30396 ft | 408 kts | 277° |
| 2026-05-06 19:56 | 49.88381 | 18.07221 | 30704 ft | 409 kts | 277° |
| 2026-05-06 19:57 | 49.88923 | 18.02880 | 31009 ft | 410 kts | 277° |
| 2026-05-06 19:57 | 49.89464 | 17.98526 | 31303 ft | 411 kts | 277° |
| 2026-05-06 19:57 | 49.90002 | 17.94172 | 31622 ft | 411 kts | 277° |
| 2026-05-06 19:57 | 49.90535 | 17.89820 | 32019 ft | 409 kts | 277° |
| 2026-05-06 19:58 | 49.91063 | 17.85495 | 32433 ft | 407 kts | 277° |
| 2026-05-06 19:58 | 49.91590 | 17.81183 | 32833 ft | 405 kts | 276° |
| 2026-05-06 19:58 | 49.92114 | 17.76891 | 33243 ft | 404 kts | 276° |
| 2026-05-06 19:58 | 49.92634 | 17.72626 | 33650 ft | 402 kts | 276° |
| 2026-05-06 19:59 | 49.93151 | 17.68361 | 33769 ft | 401 kts | 276° |
| 2026-05-06 19:59 | 49.93660 | 17.64112 | 33782 ft | 400 kts | 276° |
| 2026-05-06 19:59 | 49.94677 | 17.55633 | 33781 ft | 399 kts | 276° |
| 2026-05-06 20:00 | 49.95691 | 17.47164 | 33787 ft | 398 kts | 276° |
| 2026-05-06 20:00 | 49.96696 | 17.38717 | 33788 ft | 398 kts | 276° |
| 2026-05-06 20:01 | 49.97508 | 17.31822 | 33788 ft | 397 kts | 275° |
| 2026-05-06 20:01 | 49.98494 | 17.23377 | 33788 ft | 397 kts | 275° |
| 2026-05-06 20:02 | 49.99480 | 17.14922 | 33788 ft | 398 kts | 275° |
| 2026-05-06 20:02 | 50.00297 | 17.07883 | 33810 ft | 398 kts | 275° |
| 2026-05-06 20:03 | 50.01269 | 16.99400 | 33787 ft | 398 kts | 274° |
| 2026-05-06 20:03 | 50.02236 | 16.90927 | 33787 ft | 398 kts | 274° |
| 2026-05-06 20:04 | 50.03199 | 16.82444 | 33780 ft | 398 kts | 274° |
| 2026-05-06 20:04 | 50.04158 | 16.73943 | 33785 ft | 398 kts | 274° |
| 2026-05-06 20:05 | 50.05105 | 16.65458 | 33774 ft | 398 kts | 274° |
| 2026-05-06 20:05 | 50.06042 | 16.57002 | 33781 ft | 399 kts | 274° |
| 2026-05-06 20:06 | 50.06969 | 16.48629 | 33438 ft | 384 kts | 273° |
| 2026-05-06 20:06 | 50.07421 | 16.44559 | 32934 ft | 379 kts | 273° |
| 2026-05-06 20:06 | 50.07864 | 16.40533 | 32395 ft | 375 kts | 273° |
| 2026-05-06 20:07 | 50.08299 | 16.36541 | 31853 ft | 373 kts | 273° |
| 2026-05-06 20:07 | 50.08730 | 16.32567 | 31333 ft | 371 kts | 274° |
| 2026-05-06 20:07 | 50.09157 | 16.28617 | 30813 ft | 368 kts | 274° |
| 2026-05-06 20:07 | 50.09580 | 16.24691 | 30292 ft | 366 kts | 274° |
| 2026-05-06 20:08 | 50.09999 | 16.20792 | 29780 ft | 365 kts | 274° |
| 2026-05-06 20:08 | 50.10415 | 16.16904 | 29228 ft | 363 kts | 274° |
| 2026-05-06 20:08 | 50.10829 | 16.13028 | 28677 ft | 361 kts | 274° |
| 2026-05-06 20:08 | 50.11239 | 16.09186 | 28155 ft | 359 kts | 274° |
| 2026-05-06 20:09 | 50.11645 | 16.05358 | 27648 ft | 357 kts | 273° |
| 2026-05-06 20:09 | 50.12040 | 16.01609 | 27161 ft | 354 kts | 273° |
| 2026-05-06 20:09 | 50.12437 | 15.97833 | 26679 ft | 352 kts | 273° |
| 2026-05-06 20:09 | 50.12832 | 15.94081 | 26199 ft | 350 kts | 273° |
| 2026-05-06 20:10 | 50.13226 | 15.90340 | 25701 ft | 348 kts | 273° |
| 2026-05-06 20:10 | 50.13616 | 15.86621 | 25239 ft | 346 kts | 273° |
| 2026-05-06 20:10 | 50.14000 | 15.82928 | 24768 ft | 345 kts | 273° |
| 2026-05-06 20:10 | 50.14382 | 15.79251 | 24304 ft | 343 kts | 273° |
| 2026-05-06 20:11 | 50.14761 | 15.75594 | 23863 ft | 341 kts | 273° |
| 2026-05-06 20:11 | 50.15138 | 15.71945 | 23386 ft | 340 kts | 273° |
| 2026-05-06 20:11 | 50.15511 | 15.68306 | 22862 ft | 339 kts | 273° |
| 2026-05-06 20:11 | 50.15882 | 15.64670 | 22371 ft | 337 kts | 273° |
| 2026-05-06 20:12 | 50.16248 | 15.61080 | 21889 ft | 334 kts | 273° |
| 2026-05-06 20:12 | 50.16611 | 15.57511 | 21456 ft | 332 kts | 273° |
| 2026-05-06 20:12 | 50.16972 | 15.53968 | 21010 ft | 330 kts | 273° |
| 2026-05-06 20:12 | 50.17325 | 15.50487 | 20582 ft | 328 kts | 273° |
| 2026-05-06 20:13 | 50.17683 | 15.46944 | 20143 ft | 326 kts | 273° |
| 2026-05-06 20:13 | 50.18031 | 15.43496 | 19742 ft | 324 kts | 274° |
| 2026-05-06 20:13 | 50.18380 | 15.40037 | 19332 ft | 322 kts | 274° |
| 2026-05-06 20:13 | 50.18725 | 15.36595 | 18930 ft | 320 kts | 274° |
| 2026-05-06 20:14 | 50.19065 | 15.33168 | 18542 ft | 318 kts | 274° |
| 2026-05-06 20:14 | 50.19403 | 15.29764 | 18176 ft | 317 kts | 274° |
| 2026-05-06 20:14 | 50.19739 | 15.26372 | 17740 ft | 316 kts | 274° |
| 2026-05-06 20:14 | 50.20073 | 15.22992 | 17304 ft | 314 kts | 274° |
| 2026-05-06 20:15 | 50.20406 | 15.19631 | 16880 ft | 313 kts | 274° |
| 2026-05-06 20:15 | 50.20736 | 15.16282 | 16469 ft | 311 kts | 274° |
| 2026-05-06 20:15 | 50.21062 | 15.12948 | 16070 ft | 310 kts | 274° |
| 2026-05-06 20:15 | 50.21385 | 15.09631 | 15676 ft | 309 kts | 274° |
| 2026-05-06 20:16 | 50.21704 | 15.06328 | 15292 ft | 307 kts | 274° |
| 2026-05-06 20:16 | 50.22021 | 15.03035 | 14917 ft | 306 kts | 274° |
| 2026-05-06 20:16 | 50.22336 | 14.99755 | 14544 ft | 305 kts | 274° |
| 2026-05-06 20:16 | 50.22649 | 14.96487 | 14183 ft | 304 kts | 275° |
| 2026-05-06 20:17 | 50.22961 | 14.93225 | 13823 ft | 303 kts | 275° |
| 2026-05-06 20:17 | 50.23271 | 14.89976 | 13455 ft | 302 kts | 275° |
| 2026-05-06 20:17 | 50.23578 | 14.86745 | 13059 ft | 300 kts | 275° |
| 2026-05-06 20:17 | 50.23870 | 14.83522 | 12689 ft | 298 kts | 275° |
| 2026-05-06 20:18 | 50.24141 | 14.80315 | 12310 ft | 297 kts | 274° |
| 2026-05-06 20:18 | 50.24407 | 14.77124 | 11938 ft | 295 kts | 274° |
| 2026-05-06 20:18 | 50.24671 | 14.73952 | 11566 ft | 293 kts | 274° |
| 2026-05-06 20:18 | 50.24933 | 14.70800 | 11198 ft | 291 kts | 274° |
| 2026-05-06 20:19 | 50.25159 | 14.68098 | 10881 ft | 290 kts | 274° |
| 2026-05-06 20:19 | 50.25417 | 14.64986 | 10515 ft | 288 kts | 274° |
| 2026-05-06 20:19 | 50.25672 | 14.61900 | 10173 ft | 285 kts | 274° |
| 2026-05-06 20:19 | 50.25925 | 14.58860 | 9898 ft | 279 kts | 274° |
| 2026-05-06 20:20 | 50.26171 | 14.55903 | 9569 ft | 277 kts | 274° |
| 2026-05-06 20:20 | 50.26418 | 14.52931 | 9182 ft | 275 kts | 274° |
| 2026-05-06 20:20 | 50.26662 | 14.49983 | 8819 ft | 273 kts | 274° |
| 2026-05-06 20:20 | 50.26904 | 14.47038 | 8770 ft | 274 kts | 274° |
| 2026-05-06 20:21 | 50.27146 | 14.44067 | 8777 ft | 275 kts | 274° |
| 2026-05-06 20:21 | 50.27388 | 14.41107 | 8769 ft | 275 kts | 274° |
| 2026-05-06 20:21 | 50.27628 | 14.38141 | 8775 ft | 276 kts | 274° |
| 2026-05-06 20:21 | 50.27865 | 14.35166 | 8774 ft | 273 kts | 274° |
| 2026-05-06 20:22 | 50.28094 | 14.32314 | 8660 ft | 255 kts | 274° |
| 2026-05-06 20:22 | 50.28312 | 14.29675 | 8539 ft | 234 kts | 274° |
| 2026-05-06 20:22 | 50.28518 | 14.27237 | 8312 ft | 222 kts | 274° |
| 2026-05-06 20:22 | 50.28719 | 14.24866 | 8035 ft | 217 kts | 274° |
| 2026-05-06 20:23 | 50.28915 | 14.22529 | 7662 ft | 216 kts | 274° |
| 2026-05-06 20:23 | 50.29106 | 14.20207 | 7294 ft | 215 kts | 274° |
| 2026-05-06 20:23 | 50.29290 | 14.17889 | 6922 ft | 214 kts | 274° |
| 2026-05-06 20:23 | 50.29469 | 14.15594 | 6785 ft | 213 kts | 274° |
| 2026-05-06 20:24 | 50.29648 | 14.13289 | 6776 ft | 214 kts | 274° |
| 2026-05-06 20:24 | 50.29828 | 14.10976 | 6781 ft | 214 kts | 274° |
| 2026-05-06 20:24 | 50.30007 | 14.08661 | 6784 ft | 214 kts | 274° |
| 2026-05-06 20:24 | 50.30181 | 14.06380 | 6786 ft | 214 kts | 274° |
| 2026-05-06 20:25 | 50.30360 | 14.04073 | 6701 ft | 211 kts | 274° |
| 2026-05-06 20:25 | 50.30538 | 14.01796 | 6254 ft | 211 kts | 274° |
| 2026-05-06 20:25 | 50.30710 | 13.99510 | 5788 ft | 212 kts | 275° |
| 2026-05-06 20:25 | 50.30651 | 13.97246 | 5352 ft | 208 kts | 250° |
| 2026-05-06 20:26 | 50.29804 | 13.95490 | 5046 ft | 202 kts | 216° |
| 2026-05-06 20:26 | 50.28559 | 13.94538 | 4701 ft | 200 kts | 197° |
| 2026-05-06 20:26 | 50.27169 | 13.94274 | 4291 ft | 203 kts | 178° |
| 2026-05-06 20:26 | 50.25800 | 13.94764 | 4010 ft | 202 kts | 156° |
| 2026-05-06 20:27 | 50.24606 | 13.95960 | 4011 ft | 206 kts | 137° |
| 2026-05-06 20:27 | 50.23681 | 13.97687 | 4008 ft | 208 kts | 126° |
| 2026-05-06 20:27 | 50.22817 | 13.99500 | 4009 ft | 208 kts | 126° |
| 2026-05-06 20:27 | 50.21956 | 14.01305 | 4009 ft | 206 kts | 126° |
| 2026-05-06 20:28 | 50.21131 | 14.03030 | 3998 ft | 189 kts | 126° |
| 2026-05-06 20:28 | 50.20368 | 14.04624 | 3995 ft | 180 kts | 126° |
| 2026-05-06 20:28 | 50.19624 | 14.06178 | 4006 ft | 178 kts | 126° |
| 2026-05-06 20:28 | 50.18882 | 14.07727 | 4017 ft | 177 kts | 127° |
| 2026-05-06 20:29 | 50.18148 | 14.09258 | 4004 ft | 176 kts | 126° |
| 2026-05-06 20:29 | 50.17411 | 14.10793 | 4005 ft | 177 kts | 126° |
| 2026-05-06 20:29 | 50.16677 | 14.12321 | 3996 ft | 176 kts | 127° |
| 2026-05-06 20:29 | 50.15942 | 14.13864 | 3650 ft | 176 kts | 124° |
| 2026-05-06 20:30 | 50.15217 | 14.15400 | 3224 ft | 176 kts | 125° |
| 2026-05-06 20:30 | 50.13757 | 14.18429 | 2323 ft | 170 kts | 126° |
| 2026-05-06 20:30 | 50.13037 | 14.19864 | 2056 ft | 167 kts | 123° |
| 2026-05-06 20:31 | 50.12384 | 14.21303 | 1788 ft | 163 kts | 125° |
| 2026-05-06 20:31 | 50.11699 | 14.22688 | 1499 ft | 159 kts | 127° |
| 2026-05-06 20:31 | 50.11049 | 14.24032 | 1270 ft | 149 kts | 126° |
| 2026-05-06 20:31 | 50.10441 | 14.25294 | 1172 ft | 134 kts | 127° |
| 2026-05-06 20:32 | 50.10119 | 14.25960 | 1190 ft | 41 kts | 128° |
| 2026-05-06 20:32 | 50.09961 | 14.26273 | 1197 ft | 33 kts | 126° |
| 2026-05-06 20:32 | 50.09867 | 14.26510 | 1205 ft | 14 kts | 88° |
| 2026-05-06 20:32 | 50.09877 | 14.26651 | 1207 ft | 13 kts | 79° |
| 2026-05-06 20:33 | 50.09893 | 14.26810 | 1206 ft | 16 kts | 84° |
| 2026-05-06 20:33 | 50.09910 | 14.26998 | 1205 ft | 19 kts | 79° |
| 2026-05-06 20:33 | 50.09937 | 14.27111 | 1201 ft | 6 kts | 7° |
| 2026-05-06 20:33 | 50.09975 | 14.27064 | 1198 ft | 9 kts | 313° |
| 2026-05-06 20:34 | 50.10017 | 14.26980 | 1195 ft | 11 kts | 306° |
| 2026-05-06 20:34 | 50.10067 | 14.26867 | 1189 ft | 15 kts | 305° |
| 2026-05-06 20:34 | 50.10136 | 14.26728 | 1178 ft | 18 kts | 309° |
| 2026-05-06 20:34 | 50.10202 | 14.26592 | 1176 ft | 11 kts | 305° |
| 2026-05-06 20:35 | 50.10249 | 14.26526 | 1177 ft | 9 kts | 351° |
| 2026-05-06 20:35 | 50.10306 | 14.26578 | 1171 ft | 10 kts | 37° |
| 2026-05-06 20:35 | 50.10353 | 14.26613 | 1172 ft | 6 kts | 1° |
| 2026-05-06 20:35 | 50.10385 | 14.26580 | 1174 ft | 5 kts | 312° |
| 2026-05-06 20:36 | 50.10405 | 14.26537 | 1174 ft | 5 kts | 304° |
| 2026-05-06 20:36 | 50.10421 | 14.26499 | 1173 ft | 4 kts | 304° |
| 2026-05-06 20:36 | 50.10434 | 14.26468 | 1153 ft | 3 kts | 304° |
| 2026-05-06 20:36 | 50.10446 | 14.26454 | 1180 ft | 1 kts | 341° |
| 2026-05-06 20:37 | 50.10455 | 14.26454 | 1176 ft | 3 kts | 2° |
| 2026-05-06 20:37 | 50.10473 | 14.26468 | 1176 ft | 2 kts | 31° |
| 2026-05-06 20:37 | 50.10483 | 14.26478 | 1174 ft | 0 kts | 33° |